Time;durP1;ratioP1;P1;durP2;ratioP2;P2;SDS_P1;SDS_P2;PMS_P1;PMS_P2;Temp;Humidity;BMP_temperature;BMP_pressure;BME280_temperature;BME280_humidity;BME280_pressure;Samples;Min_cycle;Max_cycle;Signal;HPM_P1;HPM_P2
2022/09/23 00:00:59;;;;;;;;;20.00;15.67;;;;;16.95;46.76;101138.44;5076547;28;45564;-56
2022/09/23 00:03:30;;;;;;;;;13.33;11.00;;;;;16.85;46.91;101120.41;5075870;28;46319;-56
2022/09/23 00:06:05;;;;;;;;;21.33;18.00;;;;;16.90;47.00;101129.84;5077031;27;45564;-56
2022/09/23 00:08:31;;;;;;;;;20.67;19.00;;;;;16.92;46.82;101144.00;5080699;27;45388;-54
2022/09/23 00:10:57;;;;;;;;;18.67;16.67;;;;;16.93;46.98;101135.00;5098050;27;45422;-54
2022/09/23 00:13:25;;;;;;;;;18.33;17.33;;;;;16.90;46.91;101127.16;5097377;27;46072;-55
2022/09/23 00:15:56;;;;;;;;;14.00;14.00;;;;;16.91;46.94;101128.88;5095700;27;45436;-54
2022/09/23 00:18:28;;;;;;;;;18.33;17.00;;;;;16.91;46.87;101125.31;5096499;27;45353;-56
2022/09/23 00:20:54;;;;;;;;;19.00;17.33;;;;;16.80;47.19;101112.72;5097789;27;45580;-57
2022/09/23 00:23:22;;;;;;;;;20.33;17.67;;;;;16.89;47.35;101128.13;5097469;27;46243;-56
2022/09/23 00:26:02;;;;;;;;;21.33;18.00;;;;;16.87;47.21;101116.63;5096597;27;45409;-55
2022/09/23 00:28:28;;;;;;;;;20.67;15.00;;;;;16.86;47.44;101116.75;5097886;27;45257;-54
2022/09/23 00:30:54;;;;;;;;;16.33;16.00;;;;;16.80;47.39;101112.72;5085984;27;45605;-55
2022/09/23 00:33:23;;;;;;;;;17.67;14.33;;;;;16.77;47.28;101099.47;5098150;27;45428;-59
2022/09/23 00:35:49;;;;;;;;;19.00;16.67;;;;;16.80;47.20;101108.19;5096312;27;45528;-55
2022/09/23 00:38:20;;;;;;;;;16.33;15.67;;;;;16.79;47.32;101100.22;5097508;27;45237;-56
2022/09/23 00:40:45;;;;;;;;;14.33;14.00;;;;;16.81;47.50;101101.00;5096303;27;45421;-53
2022/09/23 00:43:14;;;;;;;;;17.33;15.33;;;;;16.72;47.54;101094.47;5096789;27;46373;-57
2022/09/23 00:45:47;;;;;;;;;19.00;15.33;;;;;16.76;47.67;101105.81;5094661;27;45441;-56
2022/09/23 00:48:16;;;;;;;;;17.33;16.00;;;;;16.75;47.16;101104.09;5095978;27;45386;-54
2022/09/23 00:50:47;;;;;;;;;16.33;15.33;;;;;16.73;47.38;101106.06;5096473;27;45468;-55
2022/09/23 00:53:18;;;;;;;;;14.00;13.67;;;;;16.65;47.63;101097.66;5096444;27;46159;-55
2022/09/23 00:55:51;;;;;;;;;19.67;17.67;;;;;16.71;47.51;101100.81;5095586;27;45755;-54
2022/09/23 00:58:22;;;;;;;;;17.00;17.00;;;;;16.72;47.85;101101.66;5096603;27;45316;-56
2022/09/23 01:00:48;;;;;;;;;14.67;14.67;;;;;16.66;47.86;101105.59;5097436;27;45316;-53
2022/09/23 01:03:14;;;;;;;;;16.00;16.00;;;;;16.68;47.72;101100.19;5094000;27;46038;-63
2022/09/23 01:05:40;;;;;;;;;17.33;16.67;;;;;16.67;47.82;101095.75;5096098;27;45431;-55
2022/09/23 01:08:08;;;;;;;;;14.00;14.00;;;;;16.66;47.61;101092.16;5096710;27;45254;-56
2022/09/23 01:10:59;;;;;;;;;16.00;15.33;;;;;16.63;47.65;101100.47;5075650;27;45342;-55
2022/09/23 01:14:08;;;;;;;;;13.67;13.33;;;;;16.62;47.67;101093.38;5075680;27;45289;-54
2022/09/23 01:16:42;;;;;;;;;15.00;14.33;;;;;16.60;48.17;101105.22;5095435;27;45391;-59
2022/09/23 01:19:29;;;;;;;;;17.33;14.33;;;;;16.60;48.08;101097.16;5096501;27;45156;-57
2022/09/23 01:22:03;;;;;;;;;15.67;15.00;;;;;16.61;48.23;101093.50;5096548;27;45404;-55
2022/09/23 01:25:15;;;;;;;;;2.33;0.00;;;;;16.59;48.52;101087.38;5092248;27;45274;-56
2022/09/23 01:28:32;;;;;;;;;18.67;18.67;;;;;16.52;48.69;101078.91;5095725;27;45328;-54
2022/09/23 01:31:23;;;;;;;;;18.33;16.33;;;;;16.49;48.73;101066.56;5015686;28;45353;-54
2022/09/23 01:33:52;;;;;;;;;14.67;13.67;;;;;16.46;48.36;101072.16;5061300;27;45654;-54
2022/09/23 01:36:31;;;;;;;;;12.33;11.33;;;;;16.43;48.10;101058.97;5096001;27;45594;-56
2022/09/23 01:39:09;;;;;;;;;15.00;14.33;;;;;16.43;48.05;101064.34;5097945;27;45302;-53
2022/09/23 01:41:48;;;;;;;;;12.00;11.00;;;;;16.40;48.09;101067.22;5098991;27;45360;-58
2022/09/23 01:44:28;;;;;;;;;12.33;11.33;;;;;16.40;48.08;101061.88;5099300;27;45503;-55
2022/09/23 01:47:09;;;;;;;;;11.67;11.00;;;;;16.41;47.71;101068.13;5099484;27;45534;-54
2022/09/23 01:49:49;;;;;;;;;21.33;20.00;;;;;16.38;49.26;101074.53;5098542;27;45374;-55
2022/09/23 01:52:23;;;;;;;;;15.67;15.67;;;;;16.35;49.29;101068.53;5099253;27;45331;-54
2022/09/23 01:54:59;;;;;;;;;26.67;24.00;;;;;16.32;49.30;101074.16;5098790;27;45715;-54
2022/09/23 01:57:32;;;;;;;;;19.33;16.67;;;;;16.30;49.29;101068.91;5099063;27;46289;-54
2022/09/23 02:00:09;;;;;;;;;11.67;11.67;;;;;16.32;48.55;101075.00;5097744;27;45341;-56
2022/09/23 02:02:40;;;;;;;;;12.33;11.33;;;;;16.37;48.29;101077.34;5098032;27;45317;-59
2022/09/23 02:05:16;;;;;;;;;19.00;17.67;;;;;16.36;48.84;101071.13;5098612;27;45357;-58
2022/09/23 02:08:11;;;;;;;;;22.00;22.00;;;;;16.32;49.19;101075.00;5098929;27;46066;-56
2022/09/23 02:10:48;;;;;;;;;20.33;20.00;;;;;16.38;49.10;101068.31;5096724;27;45408;-55
2022/09/23 02:13:20;;;;;;;;;30.33;23.33;;;;;16.30;49.61;101068.91;5089729;27;45516;-56
2022/09/23 02:15:52;;;;;;;;;25.33;23.33;;;;;16.32;50.09;101066.09;5090571;27;45328;-57
2022/09/23 02:18:27;;;;;;;;;25.67;25.33;;;;;16.30;49.97;101066.22;5098446;27;46171;-55
2022/09/23 02:20:59;;;;;;;;;31.00;25.67;;;;;16.30;50.07;101065.34;5098412;27;45728;-55
2022/09/23 02:23:49;;;;;;;;;28.00;24.33;;;;;16.29;50.07;101079.75;5098658;27;45342;-55
2022/09/23 02:26:24;;;;;;;;;28.67;23.33;;;;;16.28;50.27;101068.16;5098080;27;45463;-53
2022/09/23 02:29:25;;;;;;;;;28.33;27.33;;;;;16.28;50.21;101062.78;5094671;27;46861;-56
2022/09/23 02:32:20;;;;;;;;;26.67;22.33;;;;;16.27;50.19;101063.72;5098404;27;45369;-54
2022/09/23 02:35:14;;;;;;;;;29.00;24.67;;;;;16.16;50.56;101050.25;5066942;27;45442;-54
2022/09/23 02:38:28;;;;;;;;;39.00;30.00;;;;;16.18;50.27;101056.34;5096804;27;45661;-55
2022/09/23 02:41:06;;;;;;;;;26.67;25.00;;;;;16.20;50.32;101054.41;5072373;28;46165;-56
2022/09/23 02:43:52;;;;;;;;;25.67;23.67;;;;;16.20;50.61;101065.16;5076727;27;45361;-57
2022/09/23 02:46:19;;;;;;;;;31.00;29.33;;;;;16.18;50.62;101054.53;5077604;27;45381;-55
2022/09/23 02:48:49;;;;;;;;;28.33;26.67;;;;;16.15;51.02;101052.06;5077994;27;45503;-55
2022/09/23 02:51:15;;;;;;;;;32.00;30.00;;;;;16.13;50.67;101042.41;5084671;27;45421;-55
2022/09/23 02:53:40;;;;;;;;;32.25;31.25;;;;;16.09;51.11;101036.41;5098452;27;45183;-56
2022/09/23 02:56:16;;;;;;;;;27.00;24.00;;;;;16.13;51.39;101042.41;5098531;27;45446;-57
2022/09/23 02:58:42;;;;;;;;;29.00;26.33;;;;;16.06;51.54;101031.25;5097680;27;45295;-54
2022/09/23 03:01:25;;;;;;;;;29.67;28.00;;;;;16.09;51.20;101041.75;5097267;27;45404;-55
2022/09/23 03:04:03;;;;;;;;;38.33;28.00;;;;;16.07;51.25;101038.34;5096385;27;45316;-56
2022/09/23 03:06:32;;;;;;;;;30.00;27.67;;;;;16.05;51.19;101044.78;5098337;27;45261;-54
2022/09/23 03:09:07;;;;;;;;;32.00;26.00;;;;;16.04;51.48;101043.94;5098084;27;45471;-55
2022/09/23 03:11:38;;;;;;;;;28.00;27.25;;;;;16.06;51.21;101035.78;5097727;27;45522;-54
2022/09/23 03:14:18;;;;;;;;;30.00;24.33;;;;;16.05;51.24;101034.91;5096664;27;45878;-55
2022/09/23 03:16:55;;;;;;;;;31.67;27.00;;;;;16.05;51.40;101031.38;5077214;27;45406;-55
2022/09/23 03:19:27;;;;;;;;;29.25;25.75;;;;;16.04;51.54;101032.34;5077480;27;45229;-54
2022/09/23 03:22:39;;;;;;;;;26.00;26.00;;;;;16.05;51.31;101036.75;5076963;27;46467;-55
2022/09/23 03:25:22;;;;;;;;;25.33;21.67;;;;;16.05;51.78;101036.75;5077000;27;45226;-54
2022/09/23 03:27:49;;;;;;;;;30.00;26.67;;;;;16.03;51.42;101041.38;5083468;27;45258;-57
2022/09/23 03:30:15;;;;;;;;;35.50;29.25;;;;;16.00;51.57;101038.88;5097703;27;45502;-55
2022/09/23 03:32:45;;;;;;;;;26.33;26.00;;;;;15.95;51.77;101033.00;5096234;27;46661;-54
2022/09/23 03:35:12;;;;;;;;;32.75;24.50;;;;;15.89;52.24;101029.78;5097463;27;45439;-54
2022/09/23 03:37:45;;;;;;;;;31.00;26.33;;;;;15.91;51.91;101035.91;5097511;27;45286;-55
2022/09/23 03:40:31;;;;;;;;;18.67;16.67;;;;;15.89;52.46;101037.84;5097681;27;45286;-54
2022/09/23 03:42:59;;;;;;;;;28.67;27.33;;;;;15.88;52.01;101036.09;5096509;27;45329;-57
2022/09/23 03:45:31;;;;;;;;;35.00;31.25;;;;;15.86;52.21;101038.03;5097108;27;45452;-54
2022/09/23 03:47:56;;;;;;;;;33.33;27.33;;;;;15.88;52.29;101044.16;5097044;27;45249;-55
2022/09/23 03:50:22;;;;;;;;;21.33;20.00;;;;;15.82;52.26;101027.66;5095985;27;45677;-54
2022/09/23 03:52:49;;;;;;;;;26.33;25.00;;;;;15.90;52.46;101044.91;5096030;27;48132;-55
2022/09/23 03:55:15;;;;;;;;;26.33;24.67;;;;;15.93;52.01;101042.00;5095608;27;46000;-54
2022/09/23 03:57:41;;;;;;;;;21.33;21.33;;;;;15.90;52.52;101028.81;5095918;27;45562;-56
2022/09/23 04:00:08;;;;;;;;;29.00;24.00;;;;;15.92;52.15;101034.94;5097133;27;45360;-53
2022/09/23 04:02:36;;;;;;;;;31.50;27.00;;;;;15.92;52.30;101042.97;5096228;27;45435;-55
2022/09/23 04:05:02;;;;;;;;;31.75;30.50;;;;;15.91;52.31;101043.94;5095917;27;45488;-55
2022/09/23 04:07:27;;;;;;;;;24.33;22.00;;;;;15.89;52.76;101051.25;5096830;27;45238;-56
2022/09/23 04:09:53;;;;;;;;;28.33;26.33;;;;;15.83;52.70;101046.31;5097309;27;45745;-54
2022/09/23 04:12:19;;;;;;;;;25.33;24.00;;;;;15.91;52.65;101051.13;5095670;27;45204;-53
2022/09/23 04:14:44;;;;;;;;;22.00;22.00;;;;;15.90;52.41;101052.97;5093742;27;45292;-56
2022/09/23 04:17:11;;;;;;;;;21.67;21.00;;;;;15.89;52.48;101051.25;5097136;27;45541;-54
2022/09/23 04:19:36;;;;;;;;;21.00;20.00;;;;;15.91;52.35;101043.09;5077747;27;46998;-55
2022/09/23 04:22:02;;;;;;;;;31.25;27.75;;;;;15.84;52.37;101045.34;5076750;27;45319;-56
2022/09/23 04:24:28;;;;;;;;;29.67;26.67;;;;;15.85;52.50;101038.16;5076841;27;45420;-55
2022/09/23 04:26:55;;;;;;;;;29.67;27.67;;;;;15.82;52.20;101039.22;5076636;27;45465;-54
2022/09/23 04:29:22;;;;;;;;;30.33;24.33;;;;;15.84;52.36;101042.66;5076765;27;45405;-60
2022/09/23 04:31:48;;;;;;;;;30.67;27.67;;;;;15.81;52.67;101045.56;5082538;27;45687;-54
2022/09/23 04:34:16;;;;;;;;;26.33;25.67;;;;;15.80;52.68;101035.81;5096733;27;45673;-54
2022/09/23 04:36:44;;;;;;;;;27.67;27.67;;;;;15.78;52.83;101043.09;5095914;27;45358;-55
2022/09/23 04:39:10;;;;;;;;;27.00;24.67;;;;;15.74;52.85;101040.72;5096929;27;45317;-54
2022/09/23 04:41:36;;;;;;;;;25.33;25.33;;;;;15.75;52.69;101040.63;5095632;27;46632;-56
2022/09/23 04:44:02;;;;;;;;;20.67;19.33;;;;;15.75;52.67;101040.63;5095291;27;45366;-54
2022/09/23 04:46:28;;;;;;;;;25.00;22.00;;;;;15.75;52.73;101032.56;5095194;27;45335;-55
2022/09/23 04:48:53;;;;;;;;;28.67;22.00;;;;;15.71;52.83;101028.41;5096430;27;45230;-55
2022/09/23 04:51:21;;;;;;;;;28.00;24.67;;;;;15.69;52.90;101027.66;5094371;27;45518;-55
2022/09/23 04:53:49;;;;;;;;;32.67;30.00;;;;;15.69;52.85;101033.00;5094091;27;45484;-55
2022/09/23 04:56:23;;;;;;;;;33.00;27.33;;;;;15.67;52.80;101026.06;5094373;27;45407;-54
2022/09/23 04:58:50;;;;;;;;;31.67;29.67;;;;;15.66;53.08;101029.69;5095319;27;45412;-55
2022/09/23 05:01:25;;;;;;;;;32.00;25.00;;;;;15.63;53.00;101023.59;5095764;27;45464;-55
2022/09/23 05:03:53;;;;;;;;;38.75;30.75;;;;;15.61;53.25;101028.19;5094198;27;45427;-55
2022/09/23 05:06:19;;;;;;;;;33.67;24.00;;;;;15.60;53.36;101022.94;5097685;27;45433;-56
2022/09/23 05:08:50;;;;;;;;;24.00;19.67;;;;;15.60;53.23;101018.41;5099904;27;45229;-54
2022/09/23 05:11:17;;;;;;;;;24.33;22.00;;;;;15.54;53.34;101016.16;5097293;27;47501;-56
2022/09/23 05:13:46;;;;;;;;;23.00;21.67;;;;;15.50;53.43;101011.97;5098085;27;45376;-56
2022/09/23 05:16:12;;;;;;;;;27.33;25.00;;;;;15.53;53.28;101016.25;5098006;27;45544;-56
2022/09/23 05:18:42;;;;;;;;;22.00;21.67;;;;;15.52;53.29;101019.91;5100017;27;45608;-55
2022/09/23 05:21:16;;;;;;;;;29.25;23.50;;;;;15.50;53.04;101016.50;5099761;27;46251;-56
2022/09/23 05:23:45;;;;;;;;;19.50;16.50;;;;;15.44;53.69;101016.91;5099160;27;45372;-54
2022/09/23 05:26:12;;;;;;;;;20.25;18.50;;;;;15.39;53.62;101016.38;5099358;27;45333;-55
2022/09/23 05:28:38;;;;;;;;;31.67;27.33;;;;;15.42;53.04;101014.31;5098797;27;45632;-56
2022/09/23 05:31:08;;;;;;;;;29.75;26.50;;;;;15.44;53.56;101022.25;5099202;27;46493;-55
2022/09/23 05:33:35;;;;;;;;;30.75;26.25;;;;;15.42;53.64;101016.16;5099430;27;45327;-51
2022/09/23 05:36:02;;;;;;;;;26.25;21.25;;;;;15.40;53.54;101015.41;5099431;27;45415;-54
2022/09/23 05:38:29;;;;;;;;;26.67;24.67;;;;;15.39;53.62;101017.22;5099547;27;45327;-54
2022/09/23 05:40:58;;;;;;;;;24.00;21.67;;;;;15.38;53.24;101015.50;5098149;27;46463;-52
2022/09/23 05:43:24;;;;;;;;;26.75;23.50;;;;;15.39;53.41;101019.06;5098369;27;45248;-53
2022/09/23 05:45:50;;;;;;;;;28.25;24.50;;;;;15.38;53.31;101017.34;5099159;27;45477;-57
2022/09/23 05:48:15;;;;;;;;;30.33;23.33;;;;;15.40;53.94;101020.75;5093794;27;45538;-59
2022/09/23 05:50:50;;;;;;;;;23.33;21.00;;;;;15.43;53.58;101024.09;5097627;27;47637;-59
2022/09/23 05:53:17;;;;;;;;;34.50;27.50;;;;;15.48;53.76;101018.38;5098724;27;45346;-57
2022/09/23 05:55:43;;;;;;;;;28.33;22.00;;;;;15.49;53.34;101020.09;5100180;27;45299;-59
2022/09/23 05:58:09;;;;;;;;;19.00;19.00;;;;;15.50;53.60;101024.53;5097158;27;45350;-54
2022/09/23 06:00:37;;;;;;;;;24.00;21.50;;;;;15.49;53.22;101020.09;5098899;27;45352;-56
2022/09/23 06:03:03;;;;;;;;;28.25;21.50;;;;;15.48;53.58;101007.66;5096492;27;45361;-55
2022/09/23 06:05:29;;;;;;;;;34.00;28.00;;;;;15.53;53.37;101016.25;5097750;27;45335;-55
2022/09/23 06:07:55;;;;;;;;;25.00;21.33;;;;;15.59;53.32;101013.13;5098950;27;45586;-54
2022/09/23 06:10:20;;;;;;;;;24.00;22.00;;;;;15.56;53.44;101008.84;5093998;27;46192;-54
2022/09/23 06:12:46;;;;;;;;;30.33;24.00;;;;;15.65;53.62;101023.47;5097512;27;45495;-57
2022/09/23 06:15:11;;;;;;;;;24.67;23.33;;;;;15.61;53.60;101000.50;5077934;27;45489;-55
2022/09/23 06:17:36;;;;;;;;;23.33;22.00;;;;;15.73;53.49;101013.06;5092593;27;45656;-57
2022/09/23 06:20:02;;;;;;;;;29.33;22.33;;;;;15.73;53.40;101018.41;5098336;27;46321;-55
2022/09/23 06:22:28;;;;;;;;;25.33;20.67;;;;;15.78;53.40;101010.91;5098330;27;45385;-54
2022/09/23 06:24:53;;;;;;;;;19.00;17.67;;;;;15.83;53.43;101013.25;5098574;27;45525;-55
2022/09/23 06:27:19;;;;;;;;;21.67;19.00;;;;;15.87;53.66;101018.28;5098632;27;45438;-57
2022/09/23 06:29:44;;;;;;;;;20.00;19.00;;;;;15.89;53.62;101016.38;5098589;27;46269;-54
2022/09/23 06:32:09;;;;;;;;;16.33;15.00;;;;;15.92;53.39;101021.53;5091900;27;45389;-53
2022/09/23 06:34:40;;;;;;;;;20.33;19.33;;;;;15.96;53.40;101021.28;5086373;27;45797;-56
2022/09/23 06:37:05;;;;;;;;;21.33;18.00;;;;;15.97;53.37;101026.53;5090883;27;45551;-56
2022/09/23 06:39:31;;;;;;;;;23.33;20.00;;;;;16.04;53.26;101026.97;5097118;27;45527;-54
2022/09/23 06:41:56;;;;;;;;;24.00;21.00;;;;;16.00;52.90;101026.31;5085869;27;45496;-53
2022/09/23 06:44:21;;;;;;;;;19.67;18.33;;;;;16.06;53.19;101035.78;5082667;27;45421;-57
2022/09/23 06:46:49;;;;;;;;;22.33;20.33;;;;;16.05;53.26;101029.56;5096304;27;45507;-54
2022/09/23 06:49:14;;;;;;;;;21.67;19.33;;;;;16.08;53.18;101026.63;5097032;27;47368;-58
2022/09/23 06:51:40;;;;;;;;;21.67;18.67;;;;;16.15;53.20;101029.75;5086592;27;45363;-53
2022/09/23 06:54:05;;;;;;;;;21.67;19.67;;;;;16.17;53.02;101022.44;5095957;27;45254;-54
2022/09/23 06:56:31;;;;;;;;;19.00;17.00;;;;;16.20;52.79;101023.06;5098325;27;45218;-54
2022/09/23 06:58:58;;;;;;;;;26.33;18.33;;;;;16.17;52.70;101017.06;5097724;27;45487;-53
2022/09/23 07:01:23;;;;;;;;;21.00;17.33;;;;;16.23;52.36;101028.22;5093591;27;45587;-55
2022/09/23 07:03:49;;;;;;;;;22.33;22.00;;;;;16.29;52.52;101021.56;5078053;27;45544;-56
2022/09/23 07:06:15;;;;;;;;;20.33;19.00;;;;;16.27;52.15;101011.88;5096597;27;45796;-54
2022/09/23 07:08:43;;;;;;;;;20.00;18.67;;;;;16.32;52.21;101021.31;5095774;27;46051;-53
2022/09/23 07:11:11;;;;;;;;;14.67;14.67;;;;;16.34;52.07;101032.78;5089023;27;45274;-51
2022/09/23 07:13:36;;;;;;;;;17.67;16.67;;;;;16.30;51.97;101020.56;5077293;27;45385;-54
2022/09/23 07:16:02;;;;;;;;;23.33;21.67;;;;;16.38;51.73;101025.38;5092177;27;45432;-55
2022/09/23 07:18:32;;;;;;;;;22.67;19.00;;;;;16.49;51.71;101028.13;5088335;27;46391;-56
2022/09/23 07:21:15;;;;;;;;;22.33;21.00;;;;;16.52;51.42;101022.53;5085702;27;45550;-54
2022/09/23 07:23:42;;;;;;;;;31.00;23.00;;;;;16.58;51.52;101029.28;5085637;27;45506;-55
2022/09/23 07:26:07;;;;;;;;;56.50;43.75;;;;;16.60;51.78;101013.91;5086752;27;45423;-52
2022/09/23 07:28:33;;;;;;;;;32.00;26.33;;;;;16.67;52.05;101015.19;5094967;27;45485;-55
2022/09/23 07:31:08;;;;;;;;;22.00;18.33;;;;;16.69;51.53;101018.63;5090651;27;45366;-52
2022/09/23 07:33:35;;;;;;;;;19.67;19.67;;;;;16.73;51.26;101020.09;5091224;27;45569;-54
2022/09/23 07:36:09;;;;;;;;;26.67;23.33;;;;;16.74;50.85;101019.13;5089014;27;45635;-58
2022/09/23 07:38:42;;;;;;;;;23.67;20.33;;;;;16.77;51.02;101010.84;5097290;27;45413;-56
2022/09/23 07:41:09;;;;;;;;;25.33;20.00;;;;;16.80;50.70;101016.00;5077004;27;45532;-55
2022/09/23 07:43:36;;;;;;;;;23.67;20.00;;;;;16.79;50.80;101025.00;5076843;27;45415;-53
2022/09/23 07:46:07;;;;;;;;;24.00;21.00;;;;;16.84;50.53;101033.59;5087485;27;46840;-54
2022/09/23 07:48:33;;;;;;;;;20.33;20.33;;;;;16.91;49.92;101040.19;5077670;27;45475;-57
2022/09/23 07:50:59;;;;;;;;;19.00;16.00;;;;;16.89;50.27;101033.25;5092515;27;45373;-56
2022/09/23 07:53:26;;;;;;;;;20.33;18.33;;;;;16.86;50.13;101015.53;5110030;27;45522;-54
2022/09/23 07:55:53;;;;;;;;;24.67;24.33;;;;;16.95;50.22;101014.84;5096917;27;45524;-52
2022/09/23 07:58:19;;;;;;;;;23.00;20.33;;;;;17.04;49.98;101041.00;5096681;27;45315;-53
2022/09/23 08:00:45;;;;;;;;;25.67;22.67;;;;;17.08;49.82;101042.50;5096023;27;45436;-54
2022/09/23 08:03:10;;;;;;;;;26.00;22.00;;;;;17.18;49.84;101042.63;5093798;27;45432;-54
2022/09/23 08:05:36;;;;;;;;;27.33;22.67;;;;;17.27;49.37;101041.06;5076833;27;45539;-53
2022/09/23 08:08:01;;;;;;;;;19.00;18.67;;;;;17.33;49.13;101046.00;5082724;27;46683;-55
2022/09/23 08:10:27;;;;;;;;;23.33;20.00;;;;;17.39;48.94;101042.81;5096489;27;45447;-53
2022/09/23 08:12:52;;;;;;;;;23.00;19.67;;;;;17.53;49.08;101058.72;5096922;27;45349;-54
2022/09/23 08:15:18;;;;;;;;;26.67;24.33;;;;;17.58;49.02;101061.94;5079496;27;45598;-54
2022/09/23 08:17:43;;;;;;;;;17.00;16.00;;;;;17.71;48.81;101055.59;5077285;27;46528;-52
2022/09/23 08:20:43;;;;;;;;;24.00;23.00;;;;;17.76;48.57;101056.97;5084460;27;45485;-55
2022/09/23 08:22:55;;;;;;;;;26.33;25.33;;;;;17.84;48.19;101056.34;5093763;27;45592;-54
2022/09/23 08:25:22;;;;;;;;;23.33;21.33;;;;;17.85;47.75;101052.72;5084945;27;45496;-53
2022/09/23 08:27:48;;;;;;;;;19.00;19.00;;;;;17.87;47.17;101059.69;5078309;27;46246;-52
2022/09/23 08:30:13;;;;;;;;;16.67;15.33;;;;;17.96;46.91;101061.63;5075953;27;45342;-53
2022/09/23 08:32:39;;;;;;;;;19.33;19.33;;;;;18.01;46.80;101055.03;5075275;27;45384;-52
2022/09/23 08:35:05;;;;;;;;;21.33;19.67;;;;;18.03;47.14;101056.63;5076677;27;45525;-53
2022/09/23 08:37:30;;;;;;;;;25.00;18.00;;;;;18.08;46.17;101059.78;5085526;27;45876;-55
2022/09/23 08:39:56;;;;;;;;;18.33;17.33;;;;;18.14;46.14;101058.47;5092404;27;45536;-53
2022/09/23 08:42:32;;;;;;;;;21.00;19.00;;;;;18.22;45.84;101059.53;5100456;27;46135;-53
2022/09/23 08:45:02;;;;;;;;;25.67;22.67;;;;;18.30;45.71;101064.31;5097664;27;45441;-54
2022/09/23 08:48:05;;;;;;;;;23.33;20.00;;;;;18.41;45.70;101066.13;5079168;27;45306;-52
2022/09/23 08:50:49;;;;;;;;;18.33;18.00;;;;;18.43;45.57;101061.47;5074564;27;45820;-58
2022/09/23 08:53:47;;;;;;;;;17.67;14.00;;;;;18.49;45.94;101053.75;5078520;28;45450;-55
2022/09/23 08:56:16;;;;;;;;;23.33;20.33;;;;;18.62;45.72;101052.72;5079464;27;45251;-51
2022/09/23 08:59:02;;;;;;;;;24.00;21.00;;;;;18.70;45.69;101050.31;5099020;27;45423;-55
2022/09/23 09:01:48;;;;;;;;;20.67;19.33;;;;;18.73;45.41;101050.91;5085032;27;45325;-57
2022/09/23 09:04:20;;;;;;;;;19.00;16.00;;;;;18.78;45.20;101053.22;5079977;27;46100;-56
2022/09/23 09:06:55;;;;;;;;;22.33;20.33;;;;;18.78;44.79;101043.31;5079953;27;45314;-51
2022/09/23 09:09:36;;;;;;;;;22.33;21.00;;;;;18.76;44.65;101047.97;5082312;27;46189;-51
2022/09/23 09:12:19;;;;;;;;;25.33;22.33;;;;;18.81;44.86;101043.03;5083965;27;45430;-52
2022/09/23 09:14:58;;;;;;;;;21.00;20.67;;;;;18.89;45.15;101033.47;5083351;27;45462;-53
2022/09/23 09:17:37;;;;;;;;;22.00;22.00;;;;;18.97;44.81;101041.75;5100075;27;45543;-53
2022/09/23 09:20:04;;;;;;;;;20.67;19.00;;;;;19.05;44.01;101039.28;5114926;27;46904;-52
2022/09/23 09:22:48;;;;;;;;;25.33;23.67;;;;;19.05;44.77;101031.19;5099117;27;45290;-52
2022/09/23 09:25:36;;;;;;;;;21.67;20.00;;;;;19.07;44.13;101026.53;5115386;27;45368;-49
2022/09/23 09:28:23;;;;;;;;;26.33;24.33;;;;;19.19;44.25;101028.19;5099920;27;45234;-52
2022/09/23 09:30:55;;;;;;;;;27.00;19.67;;;;;19.25;43.45;101029.47;5081013;27;45550;-51
2022/09/23 09:33:45;;;;;;;;;21.00;19.67;;;;;19.29;43.26;101025.56;5077595;28;45312;-51
2022/09/23 09:36:22;;;;;;;;;25.67;20.00;;;;;19.44;42.91;101025.09;5078333;27;45646;-52
2022/09/23 09:38:49;;;;;;;;;22.00;20.00;;;;;19.53;42.63;101033.34;5077647;27;45308;-53
2022/09/23 09:41:17;;;;;;;;;22.33;18.00;;;;;19.58;42.41;101032.00;5078615;27;46331;-54
2022/09/23 09:43:48;;;;;;;;;18.67;18.33;;;;;19.63;42.56;101018.13;5094199;27;45320;-49
2022/09/23 09:46:28;;;;;;;;;18.00;15.00;;;;;19.71;41.70;101015.59;5078489;27;45408;-50
2022/09/23 09:49:10;;;;;;;;;18.00;16.33;;;;;19.73;40.92;101019.88;5078595;27;45663;-52
2022/09/23 09:51:38;;;;;;;;;21.33;18.33;;;;;19.81;41.13;101021.91;5077943;27;45618;-51
2022/09/23 09:54:24;;;;;;;;;22.00;17.33;;;;;19.87;40.84;101026.75;5078191;27;45231;-55
2022/09/23 09:56:51;;;;;;;;;19.00;19.00;;;;;19.95;40.90;101018.84;5078833;27;45272;-51
2022/09/23 09:59:27;;;;;;;;;18.33;17.33;;;;;20.02;41.47;101030.78;5078275;27;45445;-51
2022/09/23 10:02:11;;;;;;;;;17.67;17.33;;;;;20.16;40.62;101021.47;5081228;27;45425;-51
2022/09/23 10:04:40;;;;;;;;;18.00;18.00;;;;;20.23;41.62;101021.78;5098654;27;45426;-52
2022/09/23 10:07:11;;;;;;;;;20.67;19.00;;;;;20.34;40.92;101024.38;5097751;27;45496;-51
2022/09/23 10:09:38;;;;;;;;;19.67;16.00;;;;;20.39;40.50;101021.25;5098856;27;45485;-50
2022/09/23 10:12:23;;;;;;;;;20.00;19.33;;;;;20.39;40.19;101024.81;5098367;27;46977;-49
2022/09/23 10:14:54;;;;;;;;;15.00;15.00;;;;;20.40;40.51;101013.00;5098211;27;45446;-51
2022/09/23 10:17:30;;;;;;;;;20.67;18.00;;;;;20.41;40.00;101001.19;5098445;27;45340;-50
2022/09/23 10:19:59;;;;;;;;;22.00;16.67;;;;;20.44;39.74;101014.44;5086243;27;45271;-53
2022/09/23 10:22:30;;;;;;;;;21.00;19.67;;;;;20.48;39.42;101005.09;5078170;27;45673;-48
2022/09/23 10:25:02;;;;;;;;;20.33;20.00;;;;;20.51;39.52;101004.81;5078028;27;45242;-51
2022/09/23 10:27:30;;;;;;;;;24.67;22.00;;;;;20.59;39.66;101012.22;5077885;28;45444;-58
2022/09/23 10:30:01;;;;;;;;;23.33;19.00;;;;;20.64;39.90;101006.38;5077130;28;45620;-52
2022/09/23 10:32:30;;;;;;;;;19.00;19.00;;;;;20.64;40.10;101001.00;5077928;28;45279;-51
2022/09/23 10:35:12;;;;;;;;;24.33;19.67;;;;;20.75;39.84;101000.84;5076995;27;45339;-50
2022/09/23 10:37:39;;;;;;;;;27.00;23.33;;;;;20.83;40.13;101003.69;5081624;27;45493;-53
2022/09/23 10:49:48;;;;;;;;;21.00;19.33;;;;;20.84;39.12;101000.03;5065114;28;45576;-51
2022/09/23 10:52:35;;;;;;;;;19.33;18.00;;;;;20.93;39.65;100993.72;5077820;28;45235;-49
2022/09/23 10:55:35;;;;;;;;;30.67;29.00;;;;;21.03;39.76;100980.22;5077357;27;46503;-51
2022/09/23 10:58:23;;;;;;;;;20.00;17.00;;;;;21.10;38.92;100984.91;5098973;27;45484;-50
2022/09/23 11:01:04;;;;;;;;;15.33;14.00;;;;;21.22;38.88;100982.88;5093397;27;45436;-52
2022/09/23 11:04:02;;;;;;;;;11.67;10.67;;;;;21.38;37.36;100983.19;5091112;27;45378;-52
2022/09/23 11:06:34;;;;;;;;;13.33;10.33;;;;;21.54;36.51;100974.44;5101873;27;48059;-52
2022/09/23 11:09:05;;;;;;;;;21.00;16.67;;;;;21.48;36.08;100975.00;5118899;27;45343;-53
2022/09/23 11:11:50;;;;;;;;;14.33;14.33;;;;;21.51;35.95;100969.34;5118732;27;45290;-52
2022/09/23 11:14:31;;;;;;;;;12.00;12.00;;;;;21.54;36.13;100971.72;5085146;27;45485;-55
2022/09/23 11:17:25;;;;;;;;;12.33;11.00;;;;;21.54;35.78;100963.63;5118629;27;47103;-50
2022/09/23 11:20:22;;;;;;;;;12.33;12.33;;;;;21.47;35.92;100959.78;5098525;27;45519;-50
2022/09/23 11:23:09;;;;;;;;;11.33;11.00;;;;;21.46;36.36;100971.59;5096592;27;45465;-51
2022/09/23 11:26:22;;;;;;;;;16.33;14.00;;;;;21.34;36.80;100965.50;5111636;27;45430;-51
2022/09/23 11:29:13;;;;;;;;;15.67;14.00;;;;;21.47;37.38;100955.22;5094387;27;45428;-51
2022/09/23 11:31:53;;;;;;;;;27.67;21.00;;;;;21.47;37.18;100957.06;5102857;27;45447;-52
2022/09/23 11:34:46;;;;;;;;;14.33;13.00;;;;;21.52;36.65;100952.09;5130803;27;45760;-53
2022/09/23 11:37:19;;;;;;;;;19.67;16.33;;;;;21.60;36.93;100943.22;5114296;27;45426;-48
2022/09/23 11:39:49;;;;;;;;;21.00;16.67;;;;;21.73;37.31;100946.44;5130062;27;45481;-52
2022/09/23 11:42:25;;;;;;;;;20.33;19.67;;;;;21.83;37.00;100954.53;5114260;27;45475;-52
2022/09/23 11:45:01;;;;;;;;;19.67;19.67;;;;;21.94;36.53;100948.91;5113879;27;45579;-47